Time;durP1;ratioP1;P1;durP2;ratioP2;P2;SDS_P1;SDS_P2;PMS_P1;PMS_P2;Temp;Humidity;BMP_temperature;BMP_pressure;BME280_temperature;BME280_humidity;BME280_pressure;Samples;Min_cycle;Max_cycle;Signal;HPM_P1;HPM_P2
2022/09/27 00:01:14;;;;;;;1.47;1.37;;;;;14.10;97160.00;;;;16627397;28;20234;-48
2022/09/27 00:09:18;;;;;;;0.97;0.97;;;;;14.10;97148.00;;;;16640402;28;20693;-47
2022/09/27 00:17:20;;;;;;;1.57;1.27;;;;;14.00;97137.00;;;;16630177;28;20276;-48
2022/09/27 00:25:24;;;;;;;1.63;1.10;;;;;14.00;97133.00;;;;16629092;28;20219;-47
2022/09/27 00:33:27;;;;;;;1.27;1.13;;;;;14.10;97122.00;;;;16642273;28;20224;-48
2022/09/27 00:41:33;;;;;;;1.50;1.10;;;;;14.00;97115.00;;;;16639765;28;20232;-48
2022/09/27 00:49:37;;;;;;;2.30;1.17;;;;;14.10;97106.00;;;;16629143;28;20227;-48
2022/09/27 00:57:42;;;;;;;1.40;1.13;;;;;14.10;97105.00;;;;16629275;28;20232;-48
2022/09/27 01:05:44;;;;;;;0.97;0.97;;;;;14.10;97088.00;;;;16642535;28;20214;-48
2022/09/27 01:14:01;;;;;;;1.40;1.00;;;;;14.10;97091.00;;;;16635853;28;20225;-47
2022/09/27 01:22:06;;;;;;;0.70;0.70;;;;;14.10;97105.00;;;;16619877;28;20220;-47
2022/09/27 01:30:20;;;;;;;2.30;0.80;;;;;14.20;97100.00;;;;16615852;28;20220;-48
2022/09/27 01:38:32;;;;;;;0.70;0.70;;;;;14.20;97087.00;;;;16630072;28;20287;-48
2022/09/27 01:46:39;;;;;;;0.90;0.83;;;;;14.10;97093.00;;;;16628284;28;20227;-48
2022/09/27 01:54:53;;;;;;;0.90;0.90;;;;;14.30;97090.00;;;;16626053;28;20236;-47
2022/09/27 02:03:09;;;;;;;1.07;0.80;;;;;14.00;97100.00;;;;16628442;28;20207;-47
2022/09/27 02:11:13;;;;;;;0.90;0.90;;;;;14.80;97091.00;;;;16635579;28;20230;-48
2022/09/27 02:19:30;;;;;;;1.00;0.70;;;;;15.20;97103.00;;;;16637982;28;20230;-47
2022/09/27 02:27:38;;;;;;;1.47;0.83;;;;;15.00;97107.00;;;;16617415;28;20226;-47
2022/09/27 02:35:47;;;;;;;1.60;0.90;;;;;14.30;97125.00;;;;16624327;28;20220;-48
2022/09/27 02:43:52;;;;;;;0.50;0.50;;;;;13.70;97150.00;;;;16559921;22;20241;-48
2022/09/27 02:52:05;;;;;;;0.73;0.70;;;;;13.10;97139.00;;;;16459699;28;20221;-48
2022/09/27 03:00:11;;;;;;;0.90;0.60;;;;;13.00;97156.00;;;;16452641;28;20234;-47
2022/09/27 03:08:34;;;;;;;0.63;0.60;;;;;12.90;97162.00;;;;16459332;28;20355;-48
2022/09/27 03:16:37;;;;;;;1.17;0.90;;;;;13.00;97177.00;;;;16459427;28;20226;-47
2022/09/27 03:25:05;;;;;;;1.03;0.70;;;;;12.80;97188.00;;;;16454454;28;20237;-47
2022/09/27 03:33:09;;;;;;;0.80;0.80;;;;;13.00;97185.00;;;;16457353;28;20926;-48
2022/09/27 03:41:33;;;;;;;1.33;0.80;;;;;13.00;97198.00;;;;16456301;28;20237;-48
2022/09/27 03:49:36;;;;;;;2.70;0.83;;;;;13.60;97196.00;;;;16458357;28;20229;-48
2022/09/27 03:57:40;;;;;;;1.00;0.90;;;;;13.70;97196.00;;;;16453506;28;20242;-48
2022/09/27 04:05:44;;;;;;;1.87;1.50;;;;;13.70;97187.00;;;;16472534;28;20199;-48
2022/09/27 04:13:55;;;;;;;2.60;2.17;;;;;14.10;97191.00;;;;16455882;28;20215;-48
2022/09/27 04:21:58;;;;;;;2.40;1.33;;;;;14.40;97189.00;;;;16452142;28;20228;-48
2022/09/27 04:30:02;;;;;;;4.10;1.47;;;;;13.70;97199.00;;;;16432704;28;20220;-48
2022/09/27 04:38:30;;;;;;;2.70;1.80;;;;;13.90;97216.00;;;;16452056;28;20238;-48
2022/09/27 04:46:34;;;;;;;2.60;2.10;;;;;14.00;97214.00;;;;16449702;28;20208;-48
2022/09/27 04:54:38;;;;;;;2.03;1.63;;;;;13.70;97223.00;;;;16446666;28;20242;-48
2022/09/27 05:02:48;;;;;;;1.60;1.50;;;;;13.40;97233.00;;;;16435651;28;20846;-48
2022/09/27 05:11:13;;;;;;;3.67;2.30;;;;;14.00;97237.00;;;;16431092;28;20336;-48
2022/09/27 05:19:18;;;;;;;4.57;2.30;;;;;13.70;97261.00;;;;16429807;28;20229;-48
2022/09/27 05:27:38;;;;;;;5.40;2.23;;;;;13.20;97268.00;;;;16440702;28;21026;-48
2022/09/27 05:35:46;;;;;;;3.40;2.40;;;;;13.90;97269.00;;;;16451414;28;20578;-48
2022/09/27 05:43:49;;;;;;;2.43;2.23;;;;;13.80;97286.00;;;;16445170;28;20229;-48
2022/09/27 05:51:54;;;;;;;3.63;2.40;;;;;13.80;97291.00;;;;16436438;28;20743;-48
2022/09/27 05:59:56;;;;;;;3.50;2.60;;;;;13.50;97320.00;;;;16425961;28;20226;-48
2022/09/27 06:08:20;;;;;;;2.60;2.00;;;;;12.80;97334.00;;;;16422002;28;20229;-48
2022/09/27 06:16:25;;;;;;;2.23;1.60;;;;;13.70;97330.00;;;;16412763;28;20314;-48
2022/09/27 06:24:29;;;;;;;2.10;1.70;;;;;13.10;97341.00;;;;16424471;28;20717;-47
2022/09/27 06:32:36;;;;;;;2.83;1.57;;;;;12.90;97349.00;;;;16429587;28;20221;-47
2022/09/27 06:41:03;;;;;;;2.10;1.87;;;;;13.20;97358.00;;;;16439910;28;20257;-48
2022/09/27 06:49:14;;;;;;;1.80;1.50;;;;;13.10;97372.00;;;;16429542;28;20223;-48
2022/09/27 07:00:22;;;;;;;4.10;2.90;;;;;12.90;97390.00;;;;16434314;28;20221;-47
2022/09/27 07:05:42;;;;;;;1.20;1.10;;;;;12.80;97387.00;;;;16438447;28;20197;-48
2022/09/27 07:14:00;;;;;;;2.63;1.10;;;;;13.20;97395.00;;;;16439217;28;20858;-47
2022/09/27 07:22:03;;;;;;;1.33;1.00;;;;;12.90;97401.00;;;;16443156;28;20672;-47
2022/09/27 07:30:09;;;;;;;1.47;1.37;;;;;13.50;97410.00;;;;16462681;28;20218;-48
2022/09/27 07:38:12;;;;;;;0.97;0.80;;;;;13.40;97417.00;;;;16438679;28;20227;-47
2022/09/27 07:46:19;;;;;;;1.67;1.10;;;;;13.10;97447.00;;;;16444795;28;20204;-48
2022/09/27 07:54:28;;;;;;;1.80;1.00;;;;;13.20;97446.00;;;;16443604;28;20534;-48
2022/09/27 08:02:48;;;;;;;1.13;1.00;;;;;13.20;97445.00;;;;16444972;28;20234;-48
2022/09/27 08:10:50;;;;;;;0.67;0.67;;;;;13.10;97445.00;;;;16427450;28;20235;-47
2022/09/27 08:18:55;;;;;;;1.70;0.80;;;;;13.10;97463.00;;;;16415617;28;20242;-48
2022/09/27 08:27:20;;;;;;;1.30;0.90;;;;;13.20;97471.00;;;;16417743;28;20222;-49
2022/09/27 08:35:28;;;;;;;1.60;0.83;;;;;13.10;97487.00;;;;16429255;28;20217;-48
2022/09/27 08:43:36;;;;;;;2.43;1.10;;;;;13.50;97488.00;;;;16422027;28;20239;-49
2022/09/27 08:51:43;;;;;;;0.80;0.80;;;;;13.50;97489.00;;;;16600996;23;20601;-69
2022/09/27 08:59:50;;;;;;;0.80;0.80;;;;;13.50;97488.00;;;;16647805;28;20259;-75
2022/09/27 09:08:06;;;;;;;1.30;1.00;;;;;13.70;97510.00;;;;16651378;28;20214;-69
2022/09/27 09:16:16;;;;;;;1.70;1.00;;;;;13.60;97500.00;;;;16641538;28;20592;-71
2022/09/27 09:24:34;;;;;;;1.10;1.00;;;;;14.20;97489.00;;;;16646604;28;20333;-73
2022/09/27 09:32:46;;;;;;;1.47;0.67;;;;;14.60;97465.00;;;;16648521;28;20238;-72
2022/09/27 09:40:56;;;;;;;1.50;0.93;;;;;15.10;97477.00;;;;16633803;28;20245;-73
2022/09/27 09:49:06;;;;;;;0.77;0.60;;;;;14.50;97478.00;;;;16642861;28;20312;-72
2022/09/27 09:57:14;;;;;;;8.63;1.30;;;;;14.30;97473.00;;;;16636960;28;20222;-72
2022/09/27 10:05:20;;;;;;;1.53;1.17;;;;;15.20;97454.00;;;;16627270;28;20787;-72
2022/09/27 10:13:27;;;;;;;3.73;1.20;;;;;15.50;97440.00;;;;16638200;28;20867;-72
2022/09/27 10:21:40;;;;;;;2.00;1.30;;;;;15.90;97429.00;;;;16632142;28;20812;-72
2022/09/27 10:29:45;;;;;;;1.30;1.20;;;;;16.30;97445.00;;;;16633291;28;20388;-72
2022/09/27 10:37:53;;;;;;;1.23;1.10;;;;;15.30;97451.00;;;;16628662;28;20588;-71
2022/09/27 10:46:11;;;;;;;3.40;1.47;;;;;15.30;97457.00;;;;16633922;28;20832;-71
2022/09/27 10:54:23;;;;;;;2.10;1.00;;;;;15.90;97446.00;;;;16634219;28;20305;-73
2022/09/27 11:02:30;;;;;;;1.37;1.27;;;;;15.40;97432.00;;;;16640032;28;20612;-73
2022/09/27 11:10:40;;;;;;;1.87;1.30;;;;;15.60;97421.00;;;;16630464;28;20317;-72
2022/09/27 11:18:54;;;;;;;1.60;1.50;;;;;16.40;97407.00;;;;16635903;28;20234;-71
2022/09/27 11:27:06;;;;;;;1.83;1.10;;;;;16.40;97400.00;;;;16640343;28;20195;-72
2022/09/27 11:35:31;;;;;;;2.27;1.33;;;;;16.30;97402.00;;;;16644745;28;20235;-71
2022/09/27 11:43:43;;;;;;;1.43;0.93;;;;;16.00;97386.00;;;;16647089;28;20233;-72
2022/09/27 11:52:03;;;;;;;1.10;0.80;;;;;15.80;97397.00;;;;16639691;28;20357;-72
2022/09/27 12:00:17;;;;;;;1.53;1.40;;;;;15.30;97404.00;;;;16643085;28;20237;-71
2022/09/27 12:08:38;;;;;;;1.90;1.10;;;;;15.70;97407.00;;;;16642548;28;20226;-73
2022/09/27 12:16:42;;;;;;;1.20;0.90;;;;;15.20;97419.00;;;;16657399;28;20264;-72
2022/09/27 12:24:46;;;;;;;0.80;0.70;;;;;13.70;97438.00;;;;16643177;28;20315;-72
2022/09/27 12:33:28;;;;;;;3.70;0.60;;;;;12.60;97469.00;;;;16639631;28;20241;-71
2022/09/27 12:41:36;;;;;;;1.50;0.90;;;;;12.10;97453.00;;;;16648962;28;20774;-72
2022/09/27 12:50:05;;;;;;;0.63;0.63;;;;;12.90;97456.00;;;;16643056;28;20227;-75
2022/09/27 12:58:57;;;;;;;0.67;0.67;;;;;13.70;97425.00;;;;16646332;28;20311;-71
2022/09/27 13:07:16;;;;;;;1.00;0.83;;;;;14.70;97425.00;;;;16555496;28;20288;-70
2022/09/27 13:15:24;;;;;;;1.43;0.90;;;;;15.40;97414.00;;;;16641657;28;20814;-70
2022/09/27 13:23:59;;;;;;;1.03;0.93;;;;;15.40;97401.00;;;;16647415;28;20253;-74
2022/09/27 13:32:19;;;;;;;1.33;0.90;;;;;13.90;97406.00;;;;16630608;28;20218;-72
2022/09/27 13:40:52;;;;;;;1.50;1.40;;;;;14.50;97405.00;;;;16642990;28;20669;-71
2022/09/27 13:49:05;;;;;;;2.20;1.10;;;;;13.80;97406.00;;;;16643655;28;20233;-71
2022/09/27 13:57:48;;;;;;;0.77;0.70;;;;;14.20;97405.00;;;;16642427;28;20257;-71
2022/09/27 14:05:58;;;;;;;4.23;1.93;;;;;14.70;97376.00;;;;16640830;28;20820;-71
2022/09/27 14:14:04;;;;;;;3.53;1.50;;;;;14.90;97383.00;;;;16578140;22;20222;-75
2022/09/27 14:22:14;;;;;;;4.53;1.67;;;;;13.00;97430.00;;;;16531621;28;20226;-75
2022/09/27 14:30:31;;;;;;;1.57;1.27;;;;;13.50;97424.00;;;;16536193;28;20221;-74
2022/09/27 14:39:16;;;;;;;1.40;1.30;;;;;13.20;97434.00;;;;16526984;28;20232;-76
2022/09/27 14:47:28;;;;;;;1.60;1.50;;;;;14.80;97414.00;;;;16555554;28;20323;-74
2022/09/27 14:55:33;;;;;;;1.20;1.10;;;;;15.00;97414.00;;;;16547509;28;20580;-76
2022/09/27 15:03:38;;;;;;;1.50;1.40;;;;;15.00;97413.00;;;;16535965;28;20718;-77
2022/09/27 15:11:41;;;;;;;1.90;1.20;;;;;15.80;97394.00;;;;16535732;28;20234;-75
2022/09/27 15:19:58;;;;;;;1.53;1.33;;;;;16.50;97403.00;;;;16543142;28;20770;-75
2022/09/27 15:28:04;;;;;;;4.10;2.90;;;;;15.70;97384.00;;;;16544002;28;20239;-75
2022/09/27 15:36:09;;;;;;;3.53;1.67;;;;;14.10;97420.00;;;;16546254;28;20231;-75
2022/09/27 15:44:45;;;;;;;5.40;2.20;;;;;13.70;97433.00;;;;16540864;28;20308;-75
2022/09/27 15:52:50;;;;;;;2.20;1.80;;;;;14.60;97436.00;;;;16539642;28;20222;-76
2022/09/27 16:00:54;;;;;;;3.30;3.00;;;;;15.30;97428.00;;;;16536577;28;20282;-77
2022/09/27 16:08:58;;;;;;;5.30;4.57;;;;;15.50;97434.00;;;;16544126;28;20286;-75
2022/09/27 16:17:00;;;;;;;7.00;3.80;;;;;15.40;97437.00;;;;16555097;28;20241;-75
2022/09/27 16:25:05;;;;;;;8.30;7.60;;;;;14.30;97451.00;;;;16534386;28;20432;-75
2022/09/27 16:33:07;;;;;;;6.97;4.73;;;;;13.80;97459.00;;;;16535927;28;20242;-76
2022/09/27 16:41:11;;;;;;;2.40;2.20;;;;;14.00;97451.00;;;;16540382;28;20262;-75
2022/09/27 16:57:33;;;;;;;1.33;0.97;;;;;13.60;97450.00;;;;16531872;28;20260;-77
2022/09/27 17:05:35;;;;;;;2.87;2.10;;;;;13.50;97455.00;;;;16538884;28;20310;-76
2022/09/27 17:13:39;;;;;;;1.83;1.20;;;;;13.50;97462.00;;;;16535066;28;20305;-76
2022/09/27 17:21:42;;;;;;;3.60;3.30;;;;;14.20;97461.00;;;;16534783;28;20234;-76
2022/09/27 17:29:46;;;;;;;3.23;2.10;;;;;13.50;97466.00;;;;16539574;28;20201;-75
2022/09/27 17:37:49;;;;;;;2.73;2.50;;;;;13.90;97462.00;;;;16541940;28;20230;-75
2022/09/27 17:45:53;;;;;;;2.60;2.40;;;;;13.70;97459.00;;;;16541397;28;20209;-75
2022/09/27 17:53:55;;;;;;;1.37;1.10;;;;;13.50;97464.00;;;;16539058;28;20270;-75
2022/09/27 18:01:59;;;;;;;0.93;0.93;;;;;13.30;97483.00;;;;16534410;28;20226;-75
2022/09/27 18:10:02;;;;;;;4.70;2.43;;;;;13.10;97500.00;;;;16544004;28;20225;-75
2022/09/27 18:18:06;;;;;;;2.27;1.60;;;;;13.20;97500.00;;;;16552287;28;20654;-75
2022/09/27 18:26:08;;;;;;;1.97;1.80;;;;;13.60;97512.00;;;;16540793;28;20273;-75
2022/09/27 18:34:12;;;;;;;1.00;0.80;;;;;13.60;97515.00;;;;16543243;28;20590;-75
2022/09/27 18:42:15;;;;;;;0.90;0.90;;;;;13.40;97495.00;;;;16526370;28;20311;-76
2022/09/27 18:50:19;;;;;;;1.33;1.23;;;;;13.40;97501.00;;;;16540130;28;20222;-75
2022/09/27 18:58:21;;;;;;;1.57;1.47;;;;;13.30;97512.00;;;;16542767;28;20770;-75
2022/09/27 19:06:25;;;;;;;2.80;1.77;;;;;13.20;97514.00;;;;16536145;28;20221;-76
2022/09/27 19:14:28;;;;;;;1.10;1.00;;;;;13.20;97527.00;;;;16521297;28;20311;-76
2022/09/27 19:22:32;;;;;;;3.03;1.30;;;;;12.60;97544.00;;;;16531063;28;20383;-75
2022/09/27 19:30:34;;;;;;;2.00;1.20;;;;;12.60;97543.00;;;;16547265;28;20758;-75
2022/09/27 19:38:39;;;;;;;1.33;1.23;;;;;13.10;97540.00;;;;16540644;28;20228;-75
2022/09/27 19:46:43;;;;;;;2.70;1.97;;;;;13.10;97537.00;;;;16556609;28;20708;-76
2022/09/27 19:54:47;;;;;;;4.83;4.00;;;;;12.70;97525.00;;;;16546396;28;20255;-76
2022/09/27 20:02:50;;;;;;;1.97;1.30;;;;;12.80;97529.00;;;;16537897;28;20338;-75
2022/09/27 20:10:58;;;;;;;1.87;1.50;;;;;12.50;97523.00;;;;16546538;28;20516;-75
2022/09/27 20:19:01;;;;;;;0.80;0.80;;;;;12.50;97516.00;;;;16547879;28;20469;-74
2022/09/27 20:27:05;;;;;;;1.87;1.47;;;;;12.10;97505.00;;;;16538553;28;20693;-75
2022/09/27 20:35:10;;;;;;;1.40;1.30;;;;;12.20;97501.00;;;;16543979;28;20251;-74
2022/09/27 20:43:13;;;;;;;1.30;1.20;;;;;12.20;97492.00;;;;16537723;28;20246;-75
2022/09/27 20:51:16;;;;;;;1.47;1.03;;;;;12.30;97483.00;;;;16546961;28;20531;-75
2022/09/27 20:59:21;;;;;;;2.57;1.20;;;;;12.30;97492.00;;;;16535090;28;20228;-74
2022/09/27 21:07:24;;;;;;;1.53;1.43;;;;;12.50;97473.00;;;;16540725;28;20612;-75
2022/09/27 21:15:27;;;;;;;1.33;1.23;;;;;12.40;97492.00;;;;16530410;28;20223;-75
2022/09/27 21:23:30;;;;;;;1.17;1.00;;;;;12.40;97476.00;;;;16542648;28;20605;-75
2022/09/27 21:31:35;;;;;;;1.37;1.20;;;;;12.30;97471.00;;;;16534435;28;20223;-75
2022/09/27 21:39:37;;;;;;;1.40;1.30;;;;;12.20;97469.00;;;;16537483;28;20320;-75
2022/09/27 21:47:41;;;;;;;1.87;1.30;;;;;12.30;97460.00;;;;16534827;28;20231;-75
2022/09/27 21:55:54;;;;;;;2.67;1.67;;;;;12.60;97467.00;;;;16532898;28;20234;-76
2022/09/27 22:03:58;;;;;;;1.63;1.40;;;;;12.60;97452.00;;;;16534399;28;20823;-75
2022/09/27 22:12:01;;;;;;;1.33;1.20;;;;;12.60;97432.00;;;;16547137;28;20234;-75
2022/09/27 22:20:07;;;;;;;1.40;1.13;;;;;12.70;97421.00;;;;16541922;28;20225;-75
2022/09/27 22:28:10;;;;;;;1.20;1.10;;;;;12.60;97414.00;;;;16551512;28;20346;-74
2022/09/27 22:36:13;;;;;;;0.77;0.77;;;;;12.50;97400.00;;;;16535748;28;20216;-74
2022/09/27 22:44:16;;;;;;;1.97;1.23;;;;;12.60;97379.00;;;;16530164;28;20591;-75
2022/09/27 22:52:20;;;;;;;1.70;1.30;;;;;12.50;97367.00;;;;16536760;28;20222;-75
2022/09/27 23:00:23;;;;;;;1.60;1.10;;;;;12.60;97342.00;;;;16540464;28;20727;-75
2022/09/27 23:08:26;;;;;;;2.80;1.90;;;;;12.60;97331.00;;;;16546852;28;20213;-75
2022/09/27 23:16:29;;;;;;;4.20;1.70;;;;;12.80;97324.00;;;;16550156;28;20382;-75
2022/09/27 23:24:33;;;;;;;2.07;1.87;;;;;12.80;97307.00;;;;16567514;28;20219;-74
2022/09/27 23:32:35;;;;;;;1.00;1.00;;;;;12.50;97286.00;;;;16561859;28;20221;-74
2022/09/27 23:40:39;;;;;;;3.30;1.20;;;;;12.40;97271.00;;;;16558890;28;20290;-74
2022/09/27 23:48:41;;;;;;;4.33;1.43;;;;;12.40;97257.00;;;;16556479;28;20203;-75
2022/09/27 23:56:45;;;;;;;3.50;1.50;;;;;12.40;97249.00;;;;16557883;28;20212;-75
